Terminal Aerodrome Forecast
Issued by NWS

Home | Current Version | Previous Version | Text Only | Print | Product List | Glossary On
Versions: 1 2 3 4 5 6 7 8 9 10 11 12 13 14 15 16 17 18 19
773
FTUS45 KREV 210534
TAFMMH
TAF
KMMH 210534Z 2106/2206 28006KT P6SM VCSH SCT025 BKN050
      TEMPO 2108/2112 2SM -SN OVC010
     FM211600 25012G20KT P6SM VCSH SCT030 BKN060=

USA.gov is the U.S. government's official web portal to all federal, state and local government web resources and services.